createdAt,value
2018-04-28T00:02:14.529Z,14.10
2018-04-28T00:04:43.339Z,14.10
2018-04-28T00:07:12.169Z,14.20
2018-04-28T00:09:40.250Z,14.10
2018-04-28T00:12:08.316Z,14.20
2018-04-28T00:14:37.128Z,14.20
2018-04-28T00:17:08.172Z,14.20
2018-04-28T00:19:41.380Z,14.10
2018-04-28T00:22:18.000Z,14.10
2018-04-28T00:24:52.547Z,14.10
2018-04-28T00:27:40.293Z,14.00
2018-04-28T00:33:23.320Z,13.60
2018-04-28T00:38:58.413Z,13.40
2018-04-28T00:41:35.781Z,13.20
2018-04-28T00:44:27.451Z,13.10
2018-04-28T00:46:57.950Z,13.20
2018-04-28T00:49:29.515Z,13.20
2018-04-28T00:51:58.884Z,13.20
2018-04-28T00:58:18.643Z,13.30
2018-04-28T01:01:01.515Z,13.30
2018-04-28T01:03:37.172Z,13.30
2018-04-28T01:06:05.214Z,13.30
2018-04-28T01:08:33.278Z,13.30
2018-04-28T01:11:26.955Z,13.30
2018-04-28T01:13:57.223Z,13.40
2018-04-28T01:16:28.140Z,13.40
2018-04-28T01:19:17.688Z,13.40
2018-04-28T01:21:45.727Z,13.40
2018-04-28T01:24:19.979Z,13.40
2018-04-28T01:27:08.764Z,13.40
2018-04-28T01:29:48.804Z,13.40
2018-04-28T01:32:19.244Z,13.40
2018-04-28T01:35:00.710Z,13.40
2018-04-28T01:37:41.807Z,13.40
2018-04-28T01:40:12.457Z,13.30
2018-04-28T01:45:57.703Z,13.30
2018-04-28T01:48:27.146Z,13.20
2018-04-28T01:57:44.414Z,13.30
2018-04-28T02:00:14.073Z,13.30
2018-04-28T02:02:44.779Z,13.20
2018-04-28T02:05:23.182Z,13.20
2018-04-28T02:07:51.223Z,13.20
2018-04-28T02:10:26.183Z,13.10
2018-04-28T02:13:14.895Z,13.00
2018-04-28T02:15:53.426Z,12.90
2018-04-28T02:21:29.219Z,12.80
2018-04-28T02:27:53.071Z,12.70
2018-04-28T02:30:22.673Z,12.60
2018-04-28T02:32:53.783Z,12.60
2018-04-28T02:38:35.675Z,12.60
2018-04-28T02:44:06.281Z,12.60
2018-04-28T02:46:44.336Z,12.60
2018-04-28T02:49:22.883Z,12.60
2018-04-28T02:51:59.415Z,12.60
2018-04-28T02:54:35.723Z,12.30
2018-04-28T02:57:12.564Z,12.30
2018-04-28T02:59:59.900Z,12.20
2018-04-28T03:02:32.534Z,12.10
2018-04-28T03:05:11.315Z,12.10
2018-04-28T03:07:49.997Z,12.10
2018-04-28T03:10:28.487Z,12.20
2018-04-28T03:12:56.528Z,12.20
2018-04-28T03:15:24.609Z,12.30
2018-04-28T03:18:01.299Z,12.30
2018-04-28T03:20:36.133Z,12.30
2018-04-28T03:23:20.509Z,12.20
2018-04-28T03:25:48.591Z,12.20
2018-04-28T03:28:28.935Z,12.20
2018-04-28T03:31:03.272Z,12.00
2018-04-28T03:33:38.786Z,12.00
2018-04-28T03:36:29.367Z,11.90
2018-04-28T03:39:01.807Z,11.90
2018-04-28T03:41:31.122Z,11.70
2018-04-28T03:50:26.932Z,11.40
2018-04-28T03:53:07.078Z,11.40
2018-04-28T03:55:35.851Z,11.30
2018-04-28T03:58:21.858Z,11.30
2018-04-28T04:01:07.888Z,11.30
2018-04-28T04:03:41.810Z,11.40
2018-04-28T04:06:12.688Z,11.40
2018-04-28T04:08:45.850Z,11.40
2018-04-28T04:14:54.123Z,11.20
2018-04-28T04:21:08.131Z,11.30
2018-04-28T04:23:54.027Z,11.30
2018-04-28T04:29:38.794Z,11.60
2018-04-28T04:32:24.956Z,11.70
2018-04-28T04:35:00.707Z,11.80
2018-04-28T04:37:38.697Z,11.80
2018-04-28T04:40:18.522Z,11.90
2018-04-28T04:42:59.110Z,11.80
2018-04-28T04:45:39.912Z,11.60
2018-04-28T04:54:54.292Z,10.90
2018-04-28T04:57:38.925Z,10.70
2018-04-28T05:03:37.517Z,10.30
2018-04-28T05:06:17.738Z,10.30
2018-04-28T05:08:59.481Z,10.20
2018-04-28T05:11:42.255Z,10.10
2018-04-28T05:17:40.754Z,9.90
2018-04-28T05:20:26.508Z,10.00
2018-04-28T05:23:13.051Z,10.00
2018-04-28T05:29:21.060Z,10.10
2018-04-28T05:32:16.460Z,10.20
2018-04-28T05:34:56.871Z,10.40
2018-04-28T05:37:37.604Z,10.70
2018-04-28T05:44:14.899Z,11.00
2018-04-28T05:46:55.528Z,11.10
2018-04-28T05:49:50.159Z,11.40
2018-04-28T05:52:47.996Z,11.30
2018-04-28T05:55:29.849Z,11.60
2018-04-28T06:01:30.615Z,11.60
2018-04-28T06:07:11.958Z,11.40
2018-04-28T06:10:01.265Z,11.40
2018-04-28T06:16:05.242Z,11.30
2018-04-28T06:18:55.463Z,11.40
2018-04-28T06:21:23.523Z,11.60
2018-04-28T06:23:51.567Z,11.80
2018-04-28T06:26:19.620Z,11.90
2018-04-28T06:28:47.668Z,12.00
2018-04-28T06:31:15.714Z,12.10
2018-04-28T06:33:43.759Z,12.20
2018-04-28T06:36:11.814Z,12.30
2018-04-28T06:38:39.863Z,12.40
2018-04-28T06:41:07.998Z,12.50
2018-04-28T06:43:35.963Z,12.70
2018-04-28T06:46:04.019Z,12.80
2018-04-28T06:48:32.060Z,13.00
2018-04-28T06:51:00.169Z,13.30
2018-04-28T06:53:28.923Z,13.50
2018-04-28T06:55:56.974Z,13.50
2018-04-28T06:58:25.792Z,13.90
2018-04-28T07:00:54.610Z,14.10
2018-04-28T07:03:22.651Z,14.10
2018-04-28T07:05:50.708Z,14.10
2018-04-28T07:08:18.756Z,14.20
2018-04-28T07:10:47.617Z,14.10
2018-04-28T07:13:15.620Z,14.00
2018-04-28T07:15:43.677Z,14.00
2018-04-28T07:18:11.726Z,14.00
2018-04-28T07:20:39.779Z,14.10
2018-04-28T07:23:08.591Z,14.10
2018-04-28T07:25:37.422Z,14.10
2018-04-28T07:28:05.459Z,14.10
2018-04-28T07:30:33.511Z,14.20
2018-04-28T07:33:01.606Z,14.20
2018-04-28T07:35:29.667Z,14.20
2018-04-28T07:37:57.706Z,14.30
2018-04-28T07:40:26.530Z,14.70
2018-04-28T07:42:54.579Z,14.70
2018-04-28T07:45:22.629Z,14.90
2018-04-28T07:47:50.674Z,15.00
2018-04-28T07:50:19.486Z,15.30
2018-04-28T07:52:47.535Z,15.20
2018-04-28T07:55:15.584Z,15.20
2018-04-28T07:57:43.639Z,15.40
2018-04-28T08:00:11.678Z,15.40
2018-04-28T08:02:39.739Z,15.50
2018-04-28T08:05:07.782Z,15.40
2018-04-28T08:07:36.707Z,15.50
2018-04-28T08:10:04.747Z,15.60
2018-04-28T08:12:32.799Z,15.50
2018-04-28T08:15:00.849Z,15.60
2018-04-28T08:17:28.898Z,15.60
2018-04-28T08:19:56.947Z,15.60
2018-04-28T08:22:25.003Z,15.60
2018-04-28T08:24:53.067Z,15.60
2018-04-28T08:27:21.882Z,15.60
2018-04-28T08:29:50.727Z,15.70
2018-04-28T08:32:18.771Z,15.70
2018-04-28T08:34:46.814Z,15.90
2018-04-28T08:37:15.073Z,16.10
2018-04-28T08:39:43.839Z,16.20
2018-04-28T08:42:12.647Z,16.10
2018-04-28T08:44:40.691Z,16.00
2018-04-28T08:47:08.747Z,16.00
2018-04-28T08:49:36.790Z,16.20
2018-04-28T08:52:05.614Z,16.30
2018-04-28T08:54:33.659Z,16.20
2018-04-28T08:57:01.711Z,16.40
2018-04-28T09:02:38.878Z,16.60
2018-04-28T09:05:06.926Z,16.40
2018-04-28T09:07:38.716Z,16.50
2018-04-28T09:10:06.758Z,16.50
2018-04-28T09:12:34.807Z,16.70
2018-04-28T09:15:03.010Z,16.80
2018-04-28T09:17:31.818Z,16.90
2018-04-28T09:20:00.630Z,17.00
2018-04-28T09:22:28.679Z,16.90
2018-04-28T09:24:56.723Z,17.10
2018-04-28T09:27:24.779Z,17.10
2018-04-28T09:29:52.873Z,17.20
2018-04-28T09:32:20.918Z,17.30
2018-04-28T09:34:48.963Z,17.40
2018-04-28T09:37:17.782Z,17.60
2018-04-28T09:39:45.828Z,17.50
2018-04-28T09:42:13.912Z,17.70
2018-04-28T09:44:41.956Z,17.80
2018-04-28T09:47:10.771Z,17.80
2018-04-28T09:49:39.584Z,17.90
2018-04-28T09:52:08.394Z,18.00
2018-04-28T09:54:36.434Z,18.00
2018-04-28T09:57:04.516Z,18.00
2018-04-28T09:59:32.559Z,17.90
2018-04-28T10:05:00.856Z,18.10
2018-04-28T10:07:29.671Z,17.90
2018-04-28T10:09:57.714Z,17.90
2018-04-28T10:12:25.768Z,17.80
2018-04-28T10:14:53.815Z,17.60
2018-04-28T10:17:22.619Z,17.80
2018-04-28T10:19:51.445Z,18.00
2018-04-28T10:22:19.490Z,18.00
2018-04-28T10:24:47.611Z,18.00
2018-04-28T10:27:15.843Z,18.00
2018-04-28T10:29:43.908Z,17.90
2018-04-28T10:32:11.950Z,17.70
2018-04-28T10:34:40.837Z,17.90
2018-04-28T10:37:09.647Z,17.90
2018-04-28T10:39:38.462Z,18.00
2018-04-28T10:42:06.502Z,18.00
2018-04-28T10:44:34.563Z,18.00
2018-04-28T10:47:02.603Z,17.90
2018-04-28T10:49:31.432Z,17.70
2018-04-28T10:51:59.470Z,17.60
2018-04-28T10:54:27.521Z,17.70
2018-04-28T10:56:55.579Z,17.70
2018-04-28T10:59:23.628Z,17.70
2018-04-28T11:01:51.679Z,17.80
2018-04-28T11:04:19.722Z,17.90
2018-04-28T11:06:47.785Z,17.90
2018-04-28T11:09:15.836Z,17.90
2018-04-28T11:11:44.601Z,17.80
2018-04-28T11:14:12.646Z,17.60
2018-04-28T11:16:40.688Z,17.40
2018-04-28T11:19:08.730Z,17.20
2018-04-28T11:21:37.539Z,17.00
2018-04-28T11:24:06.372Z,17.00
2018-04-28T11:26:34.406Z,17.00
2018-04-28T11:29:02.458Z,17.10
2018-04-28T11:31:30.814Z,17.30
2018-04-28T11:33:58.883Z,17.70
2018-04-28T11:36:26.948Z,17.80
2018-04-28T11:38:55.001Z,18.10
2018-04-28T11:41:23.056Z,18.20
2018-04-28T11:43:52.020Z,18.40
2018-04-28T11:46:20.055Z,18.40
2018-04-28T11:48:48.111Z,18.60
2018-04-28T11:51:16.979Z,18.70
2018-04-28T11:53:45.039Z,18.60
2018-04-28T11:56:13.075Z,18.80
2018-04-28T11:58:41.128Z,18.90
2018-04-28T12:01:09.166Z,18.80
2018-04-28T12:03:37.979Z,18.90
2018-04-28T12:06:06.027Z,18.90
2018-04-28T12:08:35.587Z,18.90
2018-04-28T12:11:03.639Z,18.90
2018-04-28T12:13:31.749Z,18.90
2018-04-28T12:16:00.567Z,18.80
2018-04-28T12:18:28.652Z,18.80
2018-04-28T12:20:56.782Z,18.80
2018-04-28T12:23:25.535Z,18.90
2018-04-28T12:25:53.629Z,18.90
2018-04-28T12:28:21.676Z,19.00
2018-04-28T12:30:50.495Z,19.20
2018-04-28T12:33:19.424Z,19.20
2018-04-28T12:35:47.472Z,19.20
2018-04-28T12:38:16.300Z,19.20
2018-04-28T12:40:44.347Z,19.10
2018-04-28T12:43:12.398Z,19.40
2018-04-28T12:45:40.451Z,19.70
2018-04-28T12:48:08.492Z,20.20
2018-04-28T12:50:36.580Z,20.50
2018-04-28T12:53:04.589Z,20.60
2018-04-28T12:55:33.403Z,20.20
2018-04-28T12:58:01.517Z,20.20
2018-04-28T13:00:29.567Z,20.30
2018-04-28T13:02:57.612Z,20.10
2018-04-28T13:05:25.665Z,19.90
2018-04-28T13:07:53.708Z,20.00
2018-04-28T13:10:22.520Z,20.40
2018-04-28T13:12:50.558Z,20.30
2018-04-28T13:15:18.719Z,20.30
2018-04-28T13:17:46.759Z,20.40
2018-04-28T13:20:15.585Z,20.40
2018-04-28T13:22:43.721Z,20.40
2018-04-28T13:25:12.459Z,21.00
2018-04-28T13:27:41.271Z,21.20
2018-04-28T13:30:09.331Z,21.20
2018-04-28T13:32:38.140Z,21.30
2018-04-28T13:35:06.970Z,21.00
2018-04-28T13:37:34.998Z,20.90
2018-04-28T13:40:03.060Z,20.70
2018-04-28T13:42:31.099Z,20.40
2018-04-28T13:44:59.908Z,20.30
2018-04-28T13:47:27.954Z,20.30
2018-04-28T13:49:56.004Z,20.20
2018-04-28T13:52:24.051Z,20.20
2018-04-28T13:54:52.885Z,20.20
2018-04-28T13:57:20.923Z,20.10
2018-04-28T13:59:48.975Z,20.50
2018-04-28T14:02:17.025Z,20.50
2018-04-28T14:04:45.113Z,20.50
2018-04-28T14:07:13.158Z,20.40
2018-04-28T14:09:41.234Z,20.30
2018-04-28T14:12:09.247Z,20.20
2018-04-28T14:14:38.069Z,20.10
2018-04-28T14:17:06.155Z,20.10
2018-04-28T14:19:34.205Z,20.00
2018-04-28T14:22:03.039Z,19.90
2018-04-28T14:24:31.831Z,20.10
2018-04-28T14:26:59.902Z,20.00
2018-04-28T14:29:27.921Z,20.20
2018-04-28T14:31:55.971Z,20.20
2018-04-28T14:34:24.780Z,20.80
2018-04-28T14:36:53.599Z,20.90
2018-04-28T14:39:21.860Z,20.80
2018-04-28T14:41:49.851Z,20.60
2018-04-28T14:44:18.659Z,20.50
2018-04-28T14:46:47.476Z,20.30
2018-04-28T14:49:15.514Z,20.30
2018-04-28T14:51:44.293Z,20.40
2018-04-28T14:54:12.319Z,20.60
2018-04-28T14:56:41.145Z,20.50
2018-04-28T14:59:09.179Z,20.50
2018-04-28T15:01:37.230Z,20.50
2018-04-28T15:04:05.275Z,20.60
2018-04-28T15:06:34.088Z,20.30
2018-04-28T15:09:02.911Z,20.20
2018-04-28T15:11:30.950Z,20.20
2018-04-28T15:13:59.008Z,20.10
2018-04-28T15:16:27.048Z,20.30
2018-04-28T15:18:55.135Z,20.10
2018-04-28T15:21:23.943Z,20.40
2018-04-28T15:23:51.992Z,20.40
2018-04-28T15:26:20.032Z,20.20
2018-04-28T15:28:48.078Z,20.40
2018-04-28T15:31:16.883Z,20.30
2018-04-28T15:33:44.931Z,20.30
2018-04-28T15:36:12.977Z,20.30
2018-04-28T15:38:41.027Z,20.20
2018-04-28T15:41:09.878Z,20.10
2018-04-28T15:43:37.907Z,20.10
2018-04-28T15:46:06.719Z,19.80
2018-04-28T15:48:35.551Z,19.70
2018-04-28T15:51:03.618Z,19.70
2018-04-28T15:53:32.410Z,20.00
2018-04-28T15:56:00.451Z,20.00
2018-04-28T15:58:28.551Z,20.10
2018-04-28T16:00:56.648Z,20.20
2018-04-28T16:03:24.690Z,20.20
2018-04-28T16:05:52.735Z,20.20
2018-04-28T16:08:20.849Z,20.10
2018-04-28T16:10:48.877Z,19.90
2018-04-28T16:13:16.947Z,19.80
2018-04-28T16:15:44.990Z,19.60
2018-04-28T16:18:13.045Z,19.50
2018-04-28T16:20:41.860Z,19.50
2018-04-28T16:23:10.679Z,19.60
2018-04-28T16:25:38.735Z,19.60
2018-04-28T16:28:07.547Z,19.70
2018-04-28T16:30:36.364Z,19.80
2018-04-28T16:33:04.455Z,19.70
2018-04-28T16:35:32.506Z,19.60
2018-04-28T16:38:01.315Z,19.30
2018-04-28T16:40:30.130Z,19.30
2018-04-28T16:42:58.206Z,19.30
2018-04-28T16:45:27.024Z,19.10
2018-04-28T16:47:55.068Z,19.10
2018-04-28T16:50:23.887Z,19.00
2018-04-28T16:52:52.697Z,19.00
2018-04-28T16:55:21.518Z,18.90
2018-04-28T16:57:49.652Z,18.90
2018-04-28T17:00:17.684Z,18.90
2018-04-28T17:02:45.727Z,18.70
2018-04-28T17:05:13.788Z,18.50
2018-04-28T17:07:41.823Z,18.40
2018-04-28T17:10:10.683Z,18.30
2018-04-28T17:12:38.727Z,18.30
2018-04-28T17:15:06.780Z,18.20
2018-04-28T17:17:53.550Z,17.70
2018-04-28T17:20:21.598Z,17.70
2018-04-28T17:22:50.407Z,17.40
2018-04-28T17:25:18.801Z,17.40
2018-04-28T17:27:46.834Z,17.30
2018-04-28T17:30:14.895Z,17.10
2018-04-28T17:32:42.940Z,17.00
2018-04-28T17:35:11.751Z,16.70
2018-04-28T17:37:40.561Z,16.60
2018-04-28T17:40:08.603Z,16.60
2018-04-28T17:42:36.743Z,16.50
2018-04-28T17:45:04.790Z,16.30
2018-04-28T17:47:32.832Z,16.30
2018-04-28T17:50:00.886Z,16.10
2018-04-28T17:52:28.914Z,16.00
2018-04-28T17:54:56.966Z,16.00
2018-04-28T17:57:25.231Z,16.00
2018-04-28T17:59:54.054Z,15.80
2018-04-28T18:02:22.094Z,15.80
2018-04-28T18:04:51.659Z,15.70
2018-04-28T18:07:19.757Z,15.70
2018-04-28T18:09:47.764Z,15.70
2018-04-28T18:12:15.803Z,15.70
2018-04-28T18:14:43.852Z,15.70
2018-04-28T18:17:11.891Z,15.60
2018-04-28T18:19:39.960Z,15.50
2018-04-28T18:22:08.001Z,15.50
2018-04-28T18:24:36.043Z,15.30
2018-04-28T18:27:04.093Z,15.20
2018-04-28T18:29:32.921Z,15.00
2018-04-28T18:32:00.971Z,15.00
2018-04-28T18:34:29.780Z,14.80
2018-04-28T18:36:58.591Z,14.70
2018-04-28T18:39:27.509Z,14.60
2018-04-28T18:41:55.568Z,14.60
2018-04-28T18:44:24.411Z,14.40
2018-04-28T18:46:52.500Z,14.30
2018-04-28T18:49:20.551Z,14.30
2018-04-28T18:51:49.418Z,14.00
2018-04-28T18:54:17.407Z,14.00
2018-04-28T18:56:45.463Z,13.90
2018-04-28T18:59:13.507Z,13.80
2018-04-28T19:01:42.344Z,13.60
2018-04-28T19:04:10.382Z,13.60
2018-04-28T19:06:39.204Z,13.40
2018-04-28T19:09:08.006Z,13.30
2018-04-28T19:11:36.055Z,13.30
2018-04-28T19:14:04.924Z,13.20
2018-04-28T19:16:33.708Z,13.20
2018-04-28T19:19:01.746Z,13.10
2018-04-28T19:21:29.795Z,13.10
2018-04-28T19:23:57.835Z,13.10
2018-04-28T19:26:26.695Z,13.10
2018-04-28T19:28:54.738Z,13.10
2018-04-28T19:31:22.815Z,13.10
2018-04-28T19:33:51.623Z,13.10
2018-04-28T19:36:19.710Z,13.10
2018-04-28T19:38:48.619Z,13.20
2018-04-28T19:41:19.119Z,13.20
2018-04-28T19:43:47.151Z,13.30
2018-04-28T19:46:15.207Z,13.40
2018-04-28T19:48:44.085Z,13.60
2018-04-28T19:51:12.860Z,13.60
2018-04-28T19:53:40.905Z,13.60
2018-04-28T19:56:09.731Z,13.00
2018-04-28T19:58:37.775Z,13.00
2018-04-28T20:01:05.818Z,12.60
2018-04-28T20:03:33.867Z,12.40
2018-04-28T20:06:02.682Z,11.80
2018-04-28T20:08:30.720Z,11.80
2018-04-28T20:15:48.015Z,11.40
2018-04-28T20:18:16.062Z,11.40
2018-04-28T20:20:44.104Z,11.30
2018-04-28T20:23:30.835Z,11.20
2018-04-28T20:25:59.644Z,11.20
2018-04-28T20:28:28.657Z,11.10
2018-04-28T20:30:56.694Z,11.20
2018-04-28T20:33:24.751Z,11.20
2018-04-28T20:35:52.888Z,11.10
2018-04-28T20:38:20.856Z,11.10
2018-04-28T20:40:48.899Z,11.10
2018-04-28T20:43:16.954Z,11.10
2018-04-28T20:45:44.991Z,11.10
2018-04-28T20:48:13.040Z,11.10
2018-04-28T20:50:41.087Z,11.10
2018-04-28T20:53:09.919Z,11.00
2018-04-28T20:55:37.971Z,11.00
2018-04-28T20:58:06.787Z,11.00
2018-04-28T21:00:35.595Z,10.90
2018-04-28T21:03:03.647Z,10.90
2018-04-28T21:05:31.691Z,10.90
2018-04-28T21:07:59.747Z,10.80
2018-04-28T21:10:27.796Z,10.80
2018-04-28T21:12:55.847Z,10.80
2018-04-28T21:15:23.895Z,10.70
2018-04-28T21:17:51.950Z,10.80
2018-04-28T21:20:20.000Z,10.70
2018-04-28T21:22:48.061Z,10.70
2018-04-28T21:25:16.107Z,10.70
2018-04-28T21:27:44.956Z,10.80
2018-04-28T21:30:13.048Z,10.70
2018-04-28T21:32:41.222Z,10.70
2018-04-28T21:35:09.271Z,10.70
2018-04-28T21:37:37.407Z,10.60
2018-04-28T21:40:05.443Z,10.60
2018-04-28T21:42:33.502Z,10.60
2018-04-28T21:45:01.552Z,10.60
2018-04-28T21:47:29.823Z,10.60
2018-04-28T21:49:57.878Z,10.60
2018-04-28T21:52:25.927Z,10.60
2018-04-28T21:54:53.971Z,10.60
2018-04-28T21:57:22.787Z,10.60
2018-04-28T21:59:50.826Z,10.50
2018-04-28T22:02:18.878Z,10.60
2018-04-28T22:04:46.927Z,10.60
2018-04-28T22:07:15.744Z,10.70
2018-04-28T22:09:43.827Z,10.70
2018-04-28T22:12:11.878Z,10.70
2018-04-28T22:14:39.935Z,10.80
2018-04-28T22:17:07.971Z,10.80
2018-04-28T22:19:36.019Z,10.80
2018-04-28T22:22:04.831Z,10.60
2018-04-28T22:24:32.941Z,10.80
2018-04-28T22:27:00.936Z,10.90
2018-04-28T22:29:28.991Z,11.00
2018-04-28T22:31:57.798Z,11.00
2018-04-28T22:34:26.626Z,11.00
2018-04-28T22:36:54.659Z,11.00
2018-04-28T22:39:22.709Z,11.00
2018-04-28T22:41:50.748Z,11.00
2018-04-28T22:44:19.572Z,10.90
2018-04-28T22:46:47.615Z,11.00
2018-04-28T22:49:15.663Z,10.90
2018-04-28T22:51:44.019Z,10.90
2018-04-28T22:54:12.999Z,10.80
2018-04-28T22:56:41.040Z,10.80
2018-04-28T22:59:09.091Z,10.80
2018-04-28T23:01:37.907Z,10.80
2018-04-28T23:04:05.950Z,10.80
2018-04-28T23:06:33.997Z,10.80
2018-04-28T23:09:02.039Z,10.80
2018-04-28T23:11:30.936Z,10.80
2018-04-28T23:13:58.991Z,10.80
2018-04-28T23:16:27.027Z,10.80
2018-04-28T23:18:55.127Z,10.80
2018-04-28T23:21:23.167Z,10.80
2018-04-28T23:23:51.980Z,10.70
2018-04-28T23:26:20.794Z,10.60
2018-04-28T23:28:49.614Z,10.60
2018-04-28T23:31:17.819Z,10.50
2018-04-28T23:33:45.875Z,10.50
2018-04-28T23:36:14.684Z,10.50
2018-04-28T23:38:42.984Z,10.40
2018-04-28T23:41:11.031Z,10.50
2018-04-28T23:43:39.847Z,10.40
2018-04-28T23:46:08.663Z,10.40
2018-04-28T23:48:36.714Z,10.40
2018-04-28T23:51:04.762Z,10.40
2018-04-28T23:53:32.803Z,10.40
2018-04-28T23:56:01.639Z,10.40
2018-04-28T23:58:29.715Z,10.40
